sensor_id;sensor_type;location;lat;lon;timestamp;pressure;altitude;pressure_sealevel;temperature;humidity
59104;BME280;51449;51.676;5.812;2022-08-06T00:00:53;102499.00;;;14.35;60.60
59104;BME280;51449;51.676;5.812;2022-08-06T00:03:15;102497.69;;;14.32;60.64
59104;BME280;51449;51.676;5.812;2022-08-06T00:05:37;102496.38;;;14.30;60.89
59104;BME280;51449;51.676;5.812;2022-08-06T00:08:04;102498.94;;;14.26;60.57
59104;BME280;51449;51.676;5.812;2022-08-06T00:10:27;102502.06;;;14.25;60.61
59104;BME280;51449;51.676;5.812;2022-08-06T00:12:51;102512.31;;;14.24;60.38
59104;BME280;51449;51.676;5.812;2022-08-06T00:15:14;102511.31;;;14.20;60.92
59104;BME280;51449;51.676;5.812;2022-08-06T00:17:59;102509.31;;;14.12;61.31
59104;BME280;51449;51.676;5.812;2022-08-06T00:20:21;102503.88;;;14.07;61.21
59104;BME280;51449;51.676;5.812;2022-08-06T00:22:52;102515.09;;;14.02;61.27
59104;BME280;51449;51.676;5.812;2022-08-06T00:25:14;102519.66;;;13.98;61.16
59104;BME280;51449;51.676;5.812;2022-08-06T00:27:37;102513.41;;;13.92;61.55
59104;BME280;51449;51.676;5.812;2022-08-06T00:30:07;102523.81;;;13.86;61.50
59104;BME280;51449;51.676;5.812;2022-08-06T00:32:42;102523.13;;;13.81;61.89
59104;BME280;51449;51.676;5.812;2022-08-06T00:35:04;102521.28;;;13.76;61.47
59104;BME280;51449;51.676;5.812;2022-08-06T00:37:27;102525.50;;;13.74;61.96
59104;BME280;51449;51.676;5.812;2022-08-06T00:40:10;102525.00;;;13.72;61.87
59104;BME280;51449;51.676;5.812;2022-08-06T00:42:33;102528.06;;;13.70;62.20
59104;BME280;51449;51.676;5.812;2022-08-06T00:44:56;102524.19;;;13.71;62.13
59104;BME280;51449;51.676;5.812;2022-08-06T00:47:18;102531.03;;;13.74;62.21
59104;BME280;51449;51.676;5.812;2022-08-06T00:49:59;102524.34;;;13.75;62.55
59104;BME280;51449;51.676;5.812;2022-08-06T00:52:23;102527.63;;;13.77;62.61
59104;BME280;51449;51.676;5.812;2022-08-06T00:54:47;102534.00;;;13.77;62.75
59104;BME280;51449;51.676;5.812;2022-08-06T00:57:10;102530.41;;;13.77;62.97
59104;BME280;51449;51.676;5.812;2022-08-06T00:59:32;102529.72;;;13.71;63.35
59104;BME280;51449;51.676;5.812;2022-08-06T01:01:56;102533.72;;;13.65;62.99
59104;BME280;51449;51.676;5.812;2022-08-06T01:04:18;102542.38;;;13.63;63.55
59104;BME280;51449;51.676;5.812;2022-08-06T01:06:40;102546.47;;;13.66;63.57
59104;BME280;51449;51.676;5.812;2022-08-06T01:09:18;102546.66;;;13.69;63.63
59104;BME280;51449;51.676;5.812;2022-08-06T01:11:44;102547.47;;;13.70;64.10
59104;BME280;51449;51.676;5.812;2022-08-06T01:14:08;102548.31;;;13.70;64.14
59104;BME280;51449;51.676;5.812;2022-08-06T01:17:05;102553.31;;;13.68;63.79
59104;BME280;51449;51.676;5.812;2022-08-06T01:19:53;102554.44;;;13.67;64.17
59104;BME280;51449;51.676;5.812;2022-08-06T01:28:51;102556.09;;;13.68;64.05
59104;BME280;51449;51.676;5.812;2022-08-06T01:31:43;102561.31;;;13.70;64.17
59104;BME280;51449;51.676;5.812;2022-08-06T01:34:25;102560.19;;;13.71;64.20
59104;BME280;51449;51.676;5.812;2022-08-06T01:36:58;102561.81;;;13.72;64.26
59104;BME280;51449;51.676;5.812;2022-08-06T01:39:31;102568.16;;;13.73;64.31
59104;BME280;51449;51.676;5.812;2022-08-06T01:42:18;102573.72;;;13.73;64.40
59104;BME280;51449;51.676;5.812;2022-08-06T01:44:59;102568.81;;;13.69;64.54
59104;BME280;51449;51.676;5.812;2022-08-06T01:47:25;102566.38;;;13.68;64.40
59104;BME280;51449;51.676;5.812;2022-08-06T01:50:09;102573.31;;;13.65;64.73
59104;BME280;51449;51.676;5.812;2022-08-06T01:52:38;102571.06;;;13.67;65.06
59104;BME280;51449;51.676;5.812;2022-08-06T01:55:20;102568.81;;;13.69;64.96
59104;BME280;51449;51.676;5.812;2022-08-06T01:58:04;102574.34;;;13.69;65.35
59104;BME280;51449;51.676;5.812;2022-08-06T02:00:48;102574.69;;;13.68;65.06
59104;BME280;51449;51.676;5.812;2022-08-06T02:03:30;102578.25;;;13.68;65.20
59104;BME280;51449;51.676;5.812;2022-08-06T02:06:12;102582.97;;;13.68;65.14
59104;BME280;51449;51.676;5.812;2022-08-06T02:08:50;102578.25;;;13.68;65.49
59104;BME280;51449;51.676;5.812;2022-08-06T02:11:14;102577.44;;;13.68;65.17
59104;BME280;51449;51.676;5.812;2022-08-06T02:13:58;102576.94;;;13.66;65.39
59104;BME280;51449;51.676;5.812;2022-08-06T02:16:26;102582.25;;;13.62;65.17
59104;BME280;51449;51.676;5.812;2022-08-06T02:18:52;102577.34;;;13.59;65.62
59104;BME280;51449;51.676;5.812;2022-08-06T02:21:19;102571.31;;;13.57;65.67
59104;BME280;51449;51.676;5.812;2022-08-06T02:23:54;102581.34;;;13.53;65.68
59104;BME280;51449;51.676;5.812;2022-08-06T02:26:19;102575.63;;;13.49;65.71
59104;BME280;51449;51.676;5.812;2022-08-06T02:28:53;102580.34;;;13.49;65.51
59104;BME280;51449;51.676;5.812;2022-08-06T02:31:18;102584.75;;;13.50;65.28
59104;BME280;51449;51.676;5.812;2022-08-06T02:33:43;102579.22;;;13.50;65.39
59104;BME280;51449;51.676;5.812;2022-08-06T02:36:30;102578.09;;;13.51;65.83
59104;BME280;51449;51.676;5.812;2022-08-06T02:42:08;102578.19;;;13.46;65.65
59104;BME280;51449;51.676;5.812;2022-08-06T02:44:44;102578.00;;;13.42;65.71
59104;BME280;51449;51.676;5.812;2022-08-06T02:47:39;102587.53;;;13.36;65.89
59104;BME280;51449;51.676;5.812;2022-08-06T02:50:27;102586.63;;;13.27;66.20
59104;BME280;51449;51.676;5.812;2022-08-06T02:53:01;102580.34;;;13.21;66.19
59104;BME280;51449;51.676;5.812;2022-08-06T02:55:47;102587.81;;;13.21;66.21
59104;BME280;51449;51.676;5.812;2022-08-06T02:58:19;102588.03;;;13.24;66.36
59104;BME280;51449;51.676;5.812;2022-08-06T03:00:58;102595.75;;;13.27;66.15
59104;BME280;51449;51.676;5.812;2022-08-06T03:03:31;102588.78;;;13.30;65.83
59104;BME280;51449;51.676;5.812;2022-08-06T03:05:56;102588.47;;;13.32;66.06
59104;BME280;51449;51.676;5.812;2022-08-06T03:08:23;102594.31;;;13.30;66.06
59104;BME280;51449;51.676;5.812;2022-08-06T03:10:48;102590.22;;;13.27;66.20
59104;BME280;51449;51.676;5.812;2022-08-06T03:13:16;102586.91;;;13.25;65.97
59104;BME280;51449;51.676;5.812;2022-08-06T03:15:42;102593.06;;;13.22;66.05
59104;BME280;51449;51.676;5.812;2022-08-06T03:18:22;102593.19;;;13.17;66.15
59104;BME280;51449;51.676;5.812;2022-08-06T03:20:50;102589.66;;;13.12;66.08
59104;BME280;51449;51.676;5.812;2022-08-06T03:23:13;102592.53;;;13.06;65.74
59104;BME280;51449;51.676;5.812;2022-08-06T03:25:39;102594.59;;;13.01;65.89
59104;BME280;51449;51.676;5.812;2022-08-06T03:28:03;102596.84;;;12.99;66.27
59104;BME280;51449;51.676;5.812;2022-08-06T03:30:27;102591.94;;;12.96;66.14
59104;BME280;51449;51.676;5.812;2022-08-06T03:32:54;102599.72;;;12.94;66.38
59104;BME280;51449;51.676;5.812;2022-08-06T03:35:21;102601.66;;;12.93;66.56
59104;BME280;51449;51.676;5.812;2022-08-06T03:38:06;102600.84;;;12.93;66.84
59104;BME280;51449;51.676;5.812;2022-08-06T03:40:31;102599.72;;;12.94;66.55
59104;BME280;51449;51.676;5.812;2022-08-06T03:42:54;102601.16;;;12.91;66.68
59104;BME280;51449;51.676;5.812;2022-08-06T03:45:16;102603.09;;;12.91;66.79
59104;BME280;51449;51.676;5.812;2022-08-06T03:48:01;102609.25;;;12.88;66.85
59104;BME280;51449;51.676;5.812;2022-08-06T03:50:34;102609.03;;;12.84;66.76
59104;BME280;51449;51.676;5.812;2022-08-06T03:53:26;102603.31;;;12.80;66.50
59104;BME280;51449;51.676;5.812;2022-08-06T03:55:49;102609.75;;;12.76;66.91
59104;BME280;51449;51.676;5.812;2022-08-06T03:58:17;102616.19;;;12.71;66.87
59104;BME280;51449;51.676;5.812;2022-08-06T04:00:53;102621.81;;;12.66;67.15
59104;BME280;51449;51.676;5.812;2022-08-06T04:03:22;102619.44;;;12.59;67.34
59104;BME280;51449;51.676;5.812;2022-08-06T04:05:45;102620.88;;;12.57;67.51
59104;BME280;51449;51.676;5.812;2022-08-06T04:08:14;102628.13;;;12.53;67.58
59104;BME280;51449;51.676;5.812;2022-08-06T04:10:40;102633.13;;;12.51;67.26
59104;BME280;51449;51.676;5.812;2022-08-06T04:13:21;102638.16;;;12.49;67.64
59104;BME280;51449;51.676;5.812;2022-08-06T04:16:05;102641.50;;;12.46;67.63
59104;BME280;51449;51.676;5.812;2022-08-06T04:18:33;102642.13;;;12.42;67.35
59104;BME280;51449;51.676;5.812;2022-08-06T04:21:05;102639.97;;;12.39;67.64
59104;BME280;51449;51.676;5.812;2022-08-06T04:23:42;102642.50;;;12.36;67.59
59104;BME280;51449;51.676;5.812;2022-08-06T04:26:07;102640.84;;;12.35;67.63
59104;BME280;51449;51.676;5.812;2022-08-06T04:28:36;102653.53;;;12.36;67.75
59104;BME280;51449;51.676;5.812;2022-08-06T04:31:07;102647.22;;;12.35;67.79
59104;BME280;51449;51.676;5.812;2022-08-06T04:33:34;102647.53;;;12.34;67.65
59104;BME280;51449;51.676;5.812;2022-08-06T04:35:59;102650.59;;;12.32;67.84
59104;BME280;51449;51.676;5.812;2022-08-06T04:38:45;102657.53;;;12.30;67.78
59104;BME280;51449;51.676;5.812;2022-08-06T04:41:12;102659.78;;;12.28;68.06
59104;BME280;51449;51.676;5.812;2022-08-06T04:43:36;102660.91;;;12.27;67.98
59104;BME280;51449;51.676;5.812;2022-08-06T04:46:13;102659.56;;;12.24;68.33
59104;BME280;51449;51.676;5.812;2022-08-06T04:48:41;102665.09;;;12.24;68.03
59104;BME280;51449;51.676;5.812;2022-08-06T04:51:08;102672.84;;;12.22;68.09
59104;BME280;51449;51.676;5.812;2022-08-06T04:53:39;102666.19;;;12.23;68.43
59104;BME280;51449;51.676;5.812;2022-08-06T04:56:18;102668.97;;;12.23;68.05
59104;BME280;51449;51.676;5.812;2022-08-06T04:58:40;102674.19;;;12.25;68.34
59104;BME280;51449;51.676;5.812;2022-08-06T05:01:02;102689.34;;;12.27;68.46
59104;BME280;51449;51.676;5.812;2022-08-06T05:03:32;102684.03;;;12.31;68.38
59104;BME280;51449;51.676;5.812;2022-08-06T05:09:27;102676.09;;;12.43;68.43
59104;BME280;51449;51.676;5.812;2022-08-06T05:12:08;102675.72;;;12.50;68.48
59104;BME280;51449;51.676;5.812;2022-08-06T05:14:45;102681.69;;;12.57;68.44
59104;BME280;51449;51.676;5.812;2022-08-06T05:17:17;102676.31;;;12.66;68.66
59104;BME280;51449;51.676;5.812;2022-08-06T05:19:58;102692.72;;;12.76;68.29
59104;BME280;51449;51.676;5.812;2022-08-06T05:22:23;102688.97;;;12.85;68.60
59104;BME280;51449;51.676;5.812;2022-08-06T05:25:08;102688.78;;;12.96;68.18
59104;BME280;51449;51.676;5.812;2022-08-06T05:27:42;102690.81;;;13.04;68.30
59104;BME280;51449;51.676;5.812;2022-08-06T05:30:25;102696.69;;;13.16;68.05
59104;BME280;51449;51.676;5.812;2022-08-06T05:32:49;102692.09;;;13.25;68.30
59104;BME280;51449;51.676;5.812;2022-08-06T05:35:17;102694.69;;;13.36;67.99
59104;BME280;51449;51.676;5.812;2022-08-06T05:37:39;102700.03;;;13.46;68.02
59104;BME280;51449;51.676;5.812;2022-08-06T05:40:21;102708.97;;;13.57;68.08
59104;BME280;51449;51.676;5.812;2022-08-06T05:42:55;102707.63;;;13.68;68.10
59104;BME280;51449;51.676;5.812;2022-08-06T05:45:18;102704.13;;;13.76;68.06
59104;BME280;51449;51.676;5.812;2022-08-06T05:47:46;102710.38;;;13.82;68.07
59104;BME280;51449;51.676;5.812;2022-08-06T05:50:18;102712.91;;;13.92;67.70
59104;BME280;51449;51.676;5.812;2022-08-06T05:52:53;102711.56;;;14.03;67.76
59104;BME280;51449;51.676;5.812;2022-08-06T05:55:32;102712.38;;;14.18;67.66
59104;BME280;51449;51.676;5.812;2022-08-06T05:58:02;102709.34;;;14.28;67.43
59104;BME280;51449;51.676;5.812;2022-08-06T06:00:31;102704.06;;;14.40;67.77
59104;BME280;51449;51.676;5.812;2022-08-06T06:03:06;102710.50;;;14.49;67.93
59104;BME280;51449;51.676;5.812;2022-08-06T06:05:49;102713.38;;;14.58;67.97
59104;BME280;51449;51.676;5.812;2022-08-06T06:08:31;102715.91;;;14.68;68.10
59104;BME280;51449;51.676;5.812;2022-08-06T06:11:13;102714.84;;;14.78;68.05
59104;BME280;51449;51.676;5.812;2022-08-06T06:13:43;102709.66;;;14.85;68.31
59104;BME280;51449;51.676;5.812;2022-08-06T06:21:56;102708.47;;;15.09;68.69
59104;BME280;51449;51.676;5.812;2022-08-06T06:24:50;102711.97;;;15.23;68.35
59104;BME280;51449;51.676;5.812;2022-08-06T06:27:32;102702.25;;;15.34;68.57
59104;BME280;51449;51.676;5.812;2022-08-06T06:30:08;102702.75;;;15.45;68.27
59104;BME280;51449;51.676;5.812;2022-08-06T06:36:01;102713.03;;;15.76;67.61
59104;BME280;51449;51.676;5.812;2022-08-06T06:44:23;102715.22;;;16.14;66.52
59104;BME280;51449;51.676;5.812;2022-08-06T06:47:34;102719.66;;;16.32;66.43
59104;BME280;51449;51.676;5.812;2022-08-06T06:50:11;102721.44;;;16.45;65.79
59104;BME280;51449;51.676;5.812;2022-08-06T06:52:41;102721.16;;;16.56;65.43
59104;BME280;51449;51.676;5.812;2022-08-06T06:55:10;102718.34;;;16.64;64.59
59104;BME280;51449;51.676;5.812;2022-08-06T06:57:44;102715.88;;;16.72;64.17
59104;BME280;51449;51.676;5.812;2022-08-06T07:00:12;102713.44;;;16.79;63.76
59104;BME280;51449;51.676;5.812;2022-08-06T07:02:56;102720.13;;;16.86;63.83
59104;BME280;51449;51.676;5.812;2022-08-06T07:05:22;102720.63;;;16.97;63.65
59104;BME280;51449;51.676;5.812;2022-08-06T07:08:05;102730.88;;;17.14;63.66
59104;BME280;51449;51.676;5.812;2022-08-06T07:10:31;102725.09;;;17.28;63.40
59104;BME280;51449;51.676;5.812;2022-08-06T07:12:57;102732.09;;;17.43;62.38
59104;BME280;51449;51.676;5.812;2022-08-06T07:15:22;102738.13;;;17.53;62.22
59104;BME280;51449;51.676;5.812;2022-08-06T07:17:47;102739.38;;;17.65;62.05
59104;BME280;51449;51.676;5.812;2022-08-06T07:20:27;102744.56;;;17.75;61.49
59104;BME280;51449;51.676;5.812;2022-08-06T07:22:53;102745.03;;;17.86;60.31
59104;BME280;51449;51.676;5.812;2022-08-06T07:25:40;102748.59;;;17.95;60.28
59104;BME280;51449;51.676;5.812;2022-08-06T07:28:16;102743.09;;;18.07;60.32
59104;BME280;51449;51.676;5.812;2022-08-06T07:30:43;102740.41;;;18.20;60.13
59104;BME280;51449;51.676;5.812;2022-08-06T07:33:10;102741.41;;;18.36;59.83
59104;BME280;51449;51.676;5.812;2022-08-06T07:35:34;102749.19;;;18.51;59.74
59104;BME280;51449;51.676;5.812;2022-08-06T07:38:01;102746.28;;;18.60;58.40
59104;BME280;51449;51.676;5.812;2022-08-06T07:41:01;102745.88;;;18.70;58.83
59104;BME280;51449;51.676;5.812;2022-08-06T07:43:47;102754.47;;;18.86;57.48
59104;BME280;51449;51.676;5.812;2022-08-06T07:46:19;102747.63;;;18.96;56.10
59104;BME280;51449;51.676;5.812;2022-08-06T07:48:49;102748.91;;;18.98;55.83
59104;BME280;51449;51.676;5.812;2022-08-06T07:51:17;102754.16;;;19.00;55.83
59104;BME280;51449;51.676;5.812;2022-08-06T07:53:55;102755.34;;;19.11;55.97
59104;BME280;51449;51.676;5.812;2022-08-06T07:56:30;102753.88;;;19.26;55.25
59104;BME280;51449;51.676;5.812;2022-08-06T07:58:54;102754.91;;;19.21;55.38
59104;BME280;51449;51.676;5.812;2022-08-06T08:01:18;102759.09;;;19.15;54.95
59104;BME280;51449;51.676;5.812;2022-08-06T08:03:48;102754.91;;;19.21;54.86
59104;BME280;51449;51.676;5.812;2022-08-06T08:06:51;102754.59;;;19.35;54.42
59104;BME280;51449;51.676;5.812;2022-08-06T08:09:17;102762.41;;;19.54;53.87
59104;BME280;51449;51.676;5.812;2022-08-06T08:12:03;102760.59;;;19.71;52.41
59104;BME280;51449;51.676;5.812;2022-08-06T08:14:48;102764.22;;;19.83;52.39
59104;BME280;51449;51.676;5.812;2022-08-06T08:17:11;102762.09;;;19.93;51.96
59104;BME280;51449;51.676;5.812;2022-08-06T08:19:35;102770.25;;;19.98;51.68
59104;BME280;51449;51.676;5.812;2022-08-06T08:22:06;102765.22;;;20.03;50.65
59104;BME280;51449;51.676;5.812;2022-08-06T08:24:34;102763.47;;;20.11;50.10
59104;BME280;51449;51.676;5.812;2022-08-06T08:26:59;102773.50;;;20.24;48.89
59104;BME280;51449;51.676;5.812;2022-08-06T08:29:33;102768.13;;;20.31;49.09
59104;BME280;51449;51.676;5.812;2022-08-06T08:31:55;102765.06;;;20.37;48.46
59104;BME280;51449;51.676;5.812;2022-08-06T08:34:20;102760.94;;;20.46;49.12
59104;BME280;51449;51.676;5.812;2022-08-06T08:36:47;102760.22;;;20.62;49.13
59104;BME280;51449;51.676;5.812;2022-08-06T08:39:09;102767.41;;;20.75;47.95
59104;BME280;51449;51.676;5.812;2022-08-06T08:41:53;102763.19;;;20.81;46.98
59104;BME280;51449;51.676;5.812;2022-08-06T08:44:24;102762.72;;;20.79;46.51
59104;BME280;51449;51.676;5.812;2022-08-06T08:46:52;102763.44;;;20.76;46.26
59104;BME280;51449;51.676;5.812;2022-08-06T08:49:25;102763.44;;;20.76;46.27
59104;BME280;51449;51.676;5.812;2022-08-06T08:51:48;102757.91;;;20.80;46.01
59104;BME280;51449;51.676;5.812;2022-08-06T08:54:18;102764.00;;;20.82;45.68
59104;BME280;51449;51.676;5.812;2022-08-06T08:56:47;102763.19;;;20.81;46.67
59104;BME280;51449;51.676;5.812;2022-08-06T08:59:31;102769.91;;;20.92;46.79
59104;BME280;51449;51.676;5.812;2022-08-06T09:02:14;102767.66;;;21.14;46.60
59104;BME280;51449;51.676;5.812;2022-08-06T09:04:36;102775.03;;;21.34;46.75
59104;BME280;51449;51.676;5.812;2022-08-06T09:06:59;102770.09;;;21.59;46.19
59104;BME280;51449;51.676;5.812;2022-08-06T09:09:24;102773.59;;;21.72;43.19
59104;BME280;51449;51.676;5.812;2022-08-06T09:11:53;102769.53;;;21.70;44.35
59104;BME280;51449;51.676;5.812;2022-08-06T09:14:29;102768.25;;;21.83;44.13
59104;BME280;51449;51.676;5.812;2022-08-06T09:16:54;102771.03;;;21.99;43.84
59104;BME280;51449;51.676;5.812;2022-08-06T09:19:20;102775.50;;;21.84;44.17
59104;BME280;51449;51.676;5.812;2022-08-06T09:21:49;102784.53;;;21.93;44.47
59104;BME280;51449;51.676;5.812;2022-08-06T09:24:11;102774.63;;;22.15;44.78
59104;BME280;51449;51.676;5.812;2022-08-06T09:26:36;102778.41;;;22.39;44.12
59104;BME280;51449;51.676;5.812;2022-08-06T09:29:22;102779.28;;;22.43;42.12
59104;BME280;51449;51.676;5.812;2022-08-06T09:31:56;102772.75;;;22.04;42.14
59104;BME280;51449;51.676;5.812;2022-08-06T09:34:18;102777.50;;;21.68;41.82
59104;BME280;51449;51.676;5.812;2022-08-06T09:36:59;102781.81;;;21.33;43.05
59104;BME280;51449;51.676;5.812;2022-08-06T09:39:35;102778.44;;;21.12;43.33
59104;BME280;51449;51.676;5.812;2022-08-06T09:42:43;102783.75;;;21.01;43.47
59104;BME280;51449;51.676;5.812;2022-08-06T09:45:13;102781.53;;;21.23;43.67
59104;BME280;51449;51.676;5.812;2022-08-06T09:47:47;102774.59;;;21.48;43.59
59104;BME280;51449;51.676;5.812;2022-08-06T09:50:43;102780.13;;;21.76;42.45
59104;BME280;51449;51.676;5.812;2022-08-06T09:53:08;102779.56;;;21.87;42.19
59104;BME280;51449;51.676;5.812;2022-08-06T09:55:36;102776.66;;;21.99;42.47
59104;BME280;51449;51.676;5.812;2022-08-06T09:58:02;102778.97;;;22.13;42.45
59104;BME280;51449;51.676;5.812;2022-08-06T10:00:33;102789.38;;;22.28;41.84
59104;BME280;51449;51.676;5.812;2022-08-06T10:03:02;102785.41;;;22.29;41.20
59104;BME280;51449;51.676;5.812;2022-08-06T10:05:46;102786.38;;;22.37;40.88
59104;BME280;51449;51.676;5.812;2022-08-06T10:08:27;102777.81;;;22.49;40.59
59104;BME280;51449;51.676;5.812;2022-08-06T10:10:52;102779.56;;;22.57;40.41
59104;BME280;51449;51.676;5.812;2022-08-06T10:15:40;102779.56;;;22.57;38.96
59104;BME280;51449;51.676;5.812;2022-08-06T10:18:47;102780.19;;;22.67;39.46
59104;BME280;51449;51.676;5.812;2022-08-06T10:21:21;102772.78;;;22.78;38.98
59104;BME280;51449;51.676;5.812;2022-08-06T10:23:50;102773.13;;;22.96;39.06
59104;BME280;51449;51.676;5.812;2022-08-06T10:26:17;102764.91;;;23.06;38.58
59104;BME280;51449;51.676;5.812;2022-08-06T10:28:45;102757.75;;;23.32;38.56
59104;BME280;51449;51.676;5.812;2022-08-06T10:31:11;102760.44;;;23.48;37.30
59104;BME280;51449;51.676;5.812;2022-08-06T10:33:55;102758.66;;;23.63;37.69
59104;BME280;51449;51.676;5.812;2022-08-06T10:36:34;102745.94;;;23.72;37.92
59104;BME280;51449;51.676;5.812;2022-08-06T10:38:58;102752.72;;;23.91;38.17
59104;BME280;51449;51.676;5.812;2022-08-06T10:41:24;102753.59;;;23.95;37.14
59104;BME280;51449;51.676;5.812;2022-08-06T10:44:07;102746.81;;;23.50;37.28
59104;BME280;51449;51.676;5.812;2022-08-06T10:46:31;102744.81;;;23.04;37.80
59104;BME280;51449;51.676;5.812;2022-08-06T10:48:55;102752.53;;;22.69;38.58
59104;BME280;51449;51.676;5.812;2022-08-06T10:51:38;102742.44;;;22.68;38.77
59104;BME280;51449;51.676;5.812;2022-08-06T10:54:18;102747.25;;;22.86;38.68
59104;BME280;51449;51.676;5.812;2022-08-06T10:56:46;102741.63;;;23.06;38.03
59104;BME280;51449;51.676;5.812;2022-08-06T10:59:08;102746.38;;;23.25;38.24
59104;BME280;51449;51.676;5.812;2022-08-06T11:10:18;102741.63;;;23.52;36.30
59104;BME280;51449;51.676;5.812;2022-08-06T11:16:28;102732.31;;;23.98;36.57
59104;BME280;51449;51.676;5.812;2022-08-06T11:19:02;102735.78;;;24.18;36.45
59104;BME280;51449;51.676;5.812;2022-08-06T11:21:45;102741.06;;;23.92;37.39
59104;BME280;51449;51.676;5.812;2022-08-06T11:24:24;102740.72;;;23.71;36.64
59104;BME280;51449;51.676;5.812;2022-08-06T11:26:46;102741.84;;;23.66;37.20
59104;BME280;51449;51.676;5.812;2022-08-06T11:29:15;102745.03;;;23.65;36.97
59104;BME280;51449;51.676;5.812;2022-08-06T11:31:47;102737.78;;;23.64;36.51
59104;BME280;51449;51.676;5.812;2022-08-06T11:34:19;102727.63;;;23.56;35.93
59104;BME280;51449;51.676;5.812;2022-08-06T11:36:56;102726.34;;;23.53;36.43
59104;BME280;51449;51.676;5.812;2022-08-06T11:40:04;102727.81;;;23.70;36.02
59104;BME280;51449;51.676;5.812;2022-08-06T11:42:42;102722.50;;;23.88;35.23
59104;BME280;51449;51.676;5.812;2022-08-06T11:45:11;102719.03;;;23.98;34.13
59104;BME280;51449;51.676;5.812;2022-08-06T11:48:06;102716.53;;;23.93;34.41
59104;BME280;51449;51.676;5.812;2022-08-06T11:50:47;102713.41;;;23.98;34.39
59104;BME280;51449;51.676;5.812;2022-08-06T11:53:10;102710.31;;;24.07;34.31
59104;BME280;51449;51.676;5.812;2022-08-06T11:55:37;102713.63;;;24.16;35.11
59104;BME280;51449;51.676;5.812;2022-08-06T11:58:30;102710.97;;;24.27;35.17
59104;BME280;51449;51.676;5.812;2022-08-06T12:01:00;102714.72;;;24.38;34.42
59104;BME280;51449;51.676;5.812;2022-08-06T12:03:42;102711.00;;;24.30;33.75
59104;BME280;51449;51.676;5.812;2022-08-06T12:06:23;102711.66;;;24.17;34.44
59104;BME280;51449;51.676;5.812;2022-08-06T12:09:08;102714.59;;;24.27;34.77
59104;BME280;51449;51.676;5.812;2022-08-06T12:11:44;102706.31;;;24.42;33.67
59104;BME280;51449;51.676;5.812;2022-08-06T12:14:39;102704.44;;;24.53;33.23
59104;BME280;51449;51.676;5.812;2022-08-06T12:17:10;102699.31;;;24.59;32.94
59104;BME280;51449;51.676;5.812;2022-08-06T12:19:43;102708.66;;;24.70;32.39
59104;BME280;51449;51.676;5.812;2022-08-06T12:22:23;102702.75;;;24.82;32.51
59104;BME280;51449;51.676;5.812;2022-08-06T12:24:52;102696.81;;;24.91;31.91
59104;BME280;51449;51.676;5.812;2022-08-06T12:27:34;102689.56;;;24.90;31.82
59104;BME280;51449;51.676;5.812;2022-08-06T12:29:57;102691.19;;;24.94;32.55
59104;BME280;51449;51.676;5.812;2022-08-06T12:32:34;102683.72;;;25.13;31.95
59104;BME280;51449;51.676;5.812;2022-08-06T12:35:14;102685.59;;;25.39;31.81
59104;BME280;51449;51.676;5.812;2022-08-06T12:37:44;102672.75;;;25.52;30.75
59104;BME280;51449;51.676;5.812;2022-08-06T12:40:15;102678.41;;;25.52;30.23
59104;BME280;51449;51.676;5.812;2022-08-06T12:45:24;102671.88;;;24.96;31.86
59104;BME280;51449;51.676;5.812;2022-08-06T12:48:09;102672.06;;;25.14;32.07
59104;BME280;51449;51.676;5.812;2022-08-06T12:50:38;102670.34;;;25.06;32.27
59104;BME280;51449;51.676;5.812;2022-08-06T12:55:25;102673.97;;;24.62;31.63
59104;BME280;51449;51.676;5.812;2022-08-06T12:57:48;102667.56;;;24.31;31.32
59104;BME280;51449;51.676;5.812;2022-08-06T13:00:21;102672.50;;;24.08;32.06
59104;BME280;51449;51.676;5.812;2022-08-06T13:02:51;102671.16;;;23.98;33.12
59104;BME280;51449;51.676;5.812;2022-08-06T13:05:16;102673.16;;;23.98;33.22
59104;BME280;51449;51.676;5.812;2022-08-06T13:07:45;102673.84;;;23.87;32.41
59104;BME280;51449;51.676;5.812;2022-08-06T13:10:09;102667.13;;;23.72;32.80
59104;BME280;51449;51.676;5.812;2022-08-06T13:12:54;102663.75;;;23.60;33.33
59104;BME280;51449;51.676;5.812;2022-08-06T13:15:37;102663.41;;;23.65;33.12
59104;BME280;51449;51.676;5.812;2022-08-06T13:18:14;102662.09;;;24.12;33.81
59104;BME280;51449;51.676;5.812;2022-08-06T13:20:58;102662.66;;;24.25;33.46
59104;BME280;51449;51.676;5.812;2022-08-06T13:23:34;102667.47;;;24.24;32.74
59104;BME280;51449;51.676;5.812;2022-08-06T13:25:59;102663.72;;;24.13;32.68
59104;BME280;51449;51.676;5.812;2022-08-06T13:29:08;102660.59;;;23.91;33.57
59104;BME280;51449;51.676;5.812;2022-08-06T13:34:53;102658.63;;;23.65;34.53
59104;BME280;51449;51.676;5.812;2022-08-06T13:37:51;102661.03;;;23.67;34.63
59104;BME280;51449;51.676;5.812;2022-08-06T13:43:18;102665.34;;;23.84;33.63
59104;BME280;51449;51.676;5.812;2022-08-06T13:46:09;102662.97;;;23.89;33.45
59104;BME280;51449;51.676;5.812;2022-08-06T13:48:52;102654.38;;;23.75;33.92
59104;BME280;51449;51.676;5.812;2022-08-06T13:51:21;102657.44;;;23.70;34.56
59104;BME280;51449;51.676;5.812;2022-08-06T13:53:50;102664.50;;;23.57;35.18
59104;BME280;51449;51.676;5.812;2022-08-06T13:56:18;102660.19;;;23.36;35.25
59104;BME280;51449;51.676;5.812;2022-08-06T13:58:48;102656.25;;;23.18;35.81
59104;BME280;51449;51.676;5.812;2022-08-06T14:01:14;102650.53;;;23.11;36.20
59104;BME280;51449;51.676;5.812;2022-08-06T14:03:36;102658.16;;;23.10;36.21
59104;BME280;51449;51.676;5.812;2022-08-06T14:06:07;102655.34;;;23.10;36.13
59104;BME280;51449;51.676;5.812;2022-08-06T14:08:30;102654.13;;;23.11;36.42
59104;BME280;51449;51.676;5.812;2022-08-06T14:10:56;102651.75;;;23.13;36.38
59104;BME280;51449;51.676;5.812;2022-08-06T14:13:20;102653.78;;;23.13;36.04